Nashville, TN (37228)

9:42 AM CDT on May 26, 2015 (GMT -0500)
Bates Nursery | | Change Station
CLOSE
Current Station
Personal Weather Station
Location: Nashville, TN
Elevation: 459 ft
Nearby Weather Stations

Elev 459 ft 36.25 °N, 86.82 °W | Updated 4 seconds ago

Overcast
Overcast
75.2 °F
Feels Like 76 °F
N
4.5
Wind Variable Wind from SE
Gusts 9.8 mph

Today
High -- | Low -- °F
--% Chance of Precip.
Yesterday
High -- | Low -- °F
Precip. -- in
5:33 AM 7:54 PM
First Quarter, 58% visible
Pressure 30.09 in
Visibility 10.0 miles
Clouds Overcast 1700 ft
Heat Index 76 °F
Dew Point 69 °F
Humidity 81%
Rainfall 0.00 in
Snow Depth Not available.
UV 1 out of 12
Pollen 2.40 out of 12
Air Quality Not available.
Flu Activity Sporadic
METAR KBNA 261353Z 19014G24KT 10SM OVC017 23/20 A3010 RMK AO2 SLP187 T02330200

More Conditions Fewer Conditions

Pressure 30.09 in
Visibility 10.0 miles
Clouds Overcast 1700 ft
Heat Index 76 °F
Dew Point 69 °F
Humidity 81%
Rainfall 0.00 in
Snow Depth Not available.
UV 1 out of 12
Pollen 2.40 out of 12
Air Quality Not available.
Flu Activity Sporadic
METAR KBNA 261353Z 19014G24KT 10SM OVC017 23/20 A3010 RMK AO2 SLP187 T02330200

More Conditions Fewer Conditions

10-Day Weather Forecast

Almanac

Astronomy

May. 26, 2015 Rise Set
Actual Time
Civil Twilight
Nautical Twilight
Astronomical Twilight
Moon
Length of Visible Light
Length of Day
Tomorrow will be .
, % of the Moon is Illuminated

Today's Extremes

State Highs State Lows

Community

WunderPhotos

Upload Photos

1,824,344 photos uploaded!

WunderBlogs® & News

Nearby

Air Quality

  Air Quality AQ Index Pollutant
Not available.

Snow Depth

Station Depth Elevation

Earthquake Activity

City Distance Mag. Time & Date
Minimum magnitude displayed is 2.5.

Coastal Water Temperatures

Place Temperature

Stations

Nearby Weather Stations

Station Location Temp. Windchill Dew Point Humidity Wind Precip. Elev Updated Type